createdAt,value
2022-10-26T00:01:13.452Z,91.23
2022-10-26T00:03:43.522Z,91.30
2022-10-26T00:06:15.155Z,90.60
2022-10-26T00:08:43.570Z,90.53
2022-10-26T00:11:13.632Z,90.51
2022-10-26T00:13:42.662Z,90.93
2022-10-26T00:16:12.647Z,90.40
2022-10-26T00:18:41.380Z,90.29
2022-10-26T00:21:11.517Z,90.30
2022-10-26T00:23:41.564Z,90.20
2022-10-26T00:26:10.757Z,92.15
2022-10-26T00:28:39.460Z,92.04
2022-10-26T00:31:09.650Z,92.51
2022-10-26T00:33:37.870Z,92.29
2022-10-26T00:36:06.523Z,91.85
2022-10-26T00:38:34.618Z,92.19
2022-10-26T00:41:04.632Z,92.14
2022-10-26T00:43:40.861Z,92.76
2022-10-26T00:46:16.790Z,92.70
2022-10-26T00:48:48.164Z,92.54
2022-10-26T00:51:23.880Z,92.32
2022-10-26T00:53:53.273Z,92.17
2022-10-26T00:56:23.405Z,91.98
2022-10-26T00:58:51.995Z,91.62
2022-10-26T01:01:20.183Z,91.44
2022-10-26T01:03:50.272Z,91.30
2022-10-26T01:06:18.345Z,90.87
2022-10-26T01:08:46.895Z,91.04
2022-10-26T01:11:15.562Z,90.88
2022-10-26T01:13:46.867Z,90.78
2022-10-26T01:16:32.895Z,90.86
2022-10-26T01:19:23.625Z,93.42
2022-10-26T01:21:58.765Z,94.14
2022-10-26T01:24:56.369Z,93.98
2022-10-26T01:27:29.882Z,93.15
2022-10-26T01:30:20.299Z,93.30
2022-10-26T01:33:08.752Z,94.33
2022-10-26T01:35:43.851Z,93.96
2022-10-26T01:38:16.463Z,93.33
2022-10-26T01:40:49.863Z,93.26
2022-10-26T01:43:20.166Z,93.17
2022-10-26T01:45:51.936Z,93.03
2022-10-26T01:48:22.416Z,93.38
2022-10-26T01:50:54.895Z,93.03
2022-10-26T01:53:25.616Z,92.99
2022-10-26T01:55:55.037Z,93.41
2022-10-26T01:58:56.951Z,93.47
2022-10-26T02:01:52.574Z,95.06
2022-10-26T02:04:36.535Z,95.42
2022-10-26T02:07:12.659Z,95.27
2022-10-26T02:09:49.761Z,95.95
2022-10-26T02:12:26.322Z,95.64
2022-10-26T02:15:04.816Z,95.79
2022-10-26T02:17:39.218Z,95.94
2022-10-26T02:20:12.886Z,96.01
2022-10-26T02:22:44.861Z,95.44
2022-10-26T02:25:18.674Z,95.76
2022-10-26T02:27:52.803Z,95.53
2022-10-26T02:30:21.182Z,95.14
2022-10-26T02:32:54.257Z,95.05
2022-10-26T02:35:27.140Z,95.50
2022-10-26T02:37:59.080Z,95.78
2022-10-26T02:40:29.968Z,95.40
2022-10-26T02:43:02.090Z,95.19
2022-10-26T02:45:36.269Z,94.88
2022-10-26T02:48:06.614Z,94.84
2022-10-26T02:50:41.242Z,94.66
2022-10-26T02:53:17.369Z,94.47
2022-10-26T02:55:50.886Z,93.92
2022-10-26T02:58:24.530Z,93.88
2022-10-26T03:00:52.918Z,93.75
2022-10-26T03:03:23.670Z,93.16
2022-10-26T03:05:51.931Z,92.72
2022-10-26T03:08:20.063Z,92.62
2022-10-26T03:10:48.437Z,92.55
2022-10-26T03:13:16.587Z,91.97
2022-10-26T03:15:44.683Z,92.02
2022-10-26T03:18:12.783Z,91.35
2022-10-26T03:20:45.605Z,91.40
2022-10-26T03:23:14.009Z,91.28
2022-10-26T03:25:42.111Z,91.30
2022-10-26T03:28:10.708Z,91.27
2022-10-26T03:30:38.849Z,90.90
2022-10-26T03:33:07.013Z,90.53
2022-10-26T03:35:35.074Z,90.90
2022-10-26T03:38:04.891Z,90.60
2022-10-26T03:40:33.124Z,90.85
2022-10-26T03:43:01.496Z,90.74
2022-10-26T03:45:29.659Z,91.19
2022-10-26T03:47:57.700Z,91.94
2022-10-26T03:50:25.770Z,92.27
2022-10-26T03:52:53.838Z,92.72
2022-10-26T03:55:23.338Z,93.18
2022-10-26T03:57:51.686Z,93.48
2022-10-26T04:00:19.987Z,93.87
2022-10-26T04:02:55.667Z,94.38
2022-10-26T04:05:24.751Z,94.84
2022-10-26T04:07:56.737Z,94.75
2022-10-26T04:10:27.887Z,95.23
2022-10-26T04:12:57.482Z,95.70
2022-10-26T04:15:25.926Z,95.69
2022-10-26T04:17:58.519Z,94.85
2022-10-26T04:20:26.996Z,94.21
2022-10-26T04:22:59.626Z,94.33
2022-10-26T04:25:32.702Z,94.54
2022-10-26T04:28:02.359Z,93.84
2022-10-26T04:30:30.857Z,93.43
2022-10-26T04:32:59.141Z,93.33
2022-10-26T04:35:27.882Z,92.71
2022-10-26T04:37:59.247Z,92.49
2022-10-26T04:40:29.229Z,92.51
2022-10-26T04:42:57.545Z,92.35
2022-10-26T04:45:26.844Z,92.08
2022-10-26T04:48:01.550Z,91.32
2022-10-26T04:50:29.798Z,90.71
2022-10-26T04:52:58.273Z,90.53
2022-10-26T04:55:27.197Z,90.85
2022-10-26T04:58:00.277Z,91.03
2022-10-26T05:00:30.391Z,91.91
2022-10-26T05:03:00.748Z,92.40
2022-10-26T05:05:28.831Z,91.76
2022-10-26T05:07:57.579Z,91.72
2022-10-26T05:10:26.091Z,91.61
2022-10-26T05:12:54.910Z,91.88
2022-10-26T05:15:25.406Z,92.39
2022-10-26T05:17:57.678Z,92.56
2022-10-26T05:20:30.254Z,92.96
2022-10-26T05:22:58.768Z,92.39
2022-10-26T05:25:26.972Z,92.38
2022-10-26T05:27:59.013Z,92.36
2022-10-26T05:30:29.186Z,92.94
2022-10-26T05:32:57.685Z,92.95
2022-10-26T05:35:27.055Z,93.46
2022-10-26T05:37:55.814Z,93.97
2022-10-26T05:40:24.978Z,96.94
2022-10-26T05:42:53.213Z,96.66
2022-10-26T05:45:21.619Z,96.63
2022-10-26T05:47:51.603Z,96.92
2022-10-26T05:50:20.008Z,97.59
2022-10-26T05:52:51.198Z,97.60
2022-10-26T05:55:20.423Z,98.28
2022-10-26T05:57:49.344Z,97.61
2022-10-26T06:00:20.150Z,97.15
2022-10-26T06:03:10.372Z,96.91
2022-10-26T06:05:47.788Z,95.88
2022-10-26T06:08:17.907Z,96.13
2022-10-26T06:10:46.891Z,95.65
2022-10-26T06:13:15.471Z,95.26
2022-10-26T06:15:54.101Z,94.29
2022-10-26T06:18:30.158Z,94.80
2022-10-26T06:21:12.285Z,92.69
2022-10-26T06:23:49.155Z,92.07
2022-10-26T06:26:28.095Z,92.13
2022-10-26T06:29:05.141Z,90.92
2022-10-26T06:31:33.544Z,89.59
2022-10-26T06:34:03.753Z,88.30
2022-10-26T06:36:32.938Z,88.04
2022-10-26T06:39:04.401Z,87.10
2022-10-26T06:41:34.545Z,86.02
2022-10-26T06:44:03.906Z,86.02
2022-10-26T06:46:40.656Z,84.16
2022-10-26T06:49:20.145Z,82.50
2022-10-26T06:51:54.134Z,82.81
2022-10-26T06:54:25.768Z,81.41
2022-10-26T06:56:55.266Z,81.51
2022-10-26T06:59:33.952Z,81.05
2022-10-26T07:02:05.603Z,79.90
2022-10-26T07:04:36.230Z,79.83
2022-10-26T07:07:04.574Z,78.05
2022-10-26T07:09:33.037Z,78.49
2022-10-26T07:12:01.543Z,78.41
2022-10-26T07:14:29.715Z,78.02
2022-10-26T07:16:57.984Z,76.59
2022-10-26T07:19:26.219Z,76.49
2022-10-26T07:21:59.366Z,75.64
2022-10-26T07:24:27.843Z,75.05
2022-10-26T07:26:56.570Z,74.92
2022-10-26T07:29:25.510Z,74.77
2022-10-26T07:34:22.873Z,74.79
2022-10-26T07:36:51.739Z,74.57
2022-10-26T07:39:21.270Z,71.84
2022-10-26T07:41:49.741Z,70.21
2022-10-26T07:44:18.245Z,71.49
2022-10-26T07:46:46.712Z,71.31
2022-10-26T07:49:17.788Z,70.71
2022-10-26T07:51:47.778Z,70.56
2022-10-26T07:54:16.046Z,69.75
2022-10-26T07:56:45.683Z,68.98
2022-10-26T07:59:13.997Z,68.13
2022-10-26T08:01:42.310Z,68.89
2022-10-26T08:04:10.518Z,67.61
2022-10-26T08:06:38.706Z,66.66
2022-10-26T08:09:07.151Z,65.18
2022-10-26T08:11:37.214Z,66.21
2022-10-26T08:14:07.486Z,64.82
2022-10-26T08:16:36.321Z,64.90
2022-10-26T08:19:04.333Z,63.20
2022-10-26T08:21:40.592Z,64.29
2022-10-26T08:24:09.661Z,63.77
2022-10-26T08:26:37.881Z,63.36
2022-10-26T08:29:07.551Z,62.76
2022-10-26T08:31:35.928Z,62.84
2022-10-26T08:34:04.687Z,63.88
2022-10-26T08:36:32.883Z,64.28
2022-10-26T08:39:01.617Z,62.91
2022-10-26T08:41:36.543Z,61.86
2022-10-26T08:44:14.896Z,61.94
2022-10-26T08:46:47.022Z,60.20
2022-10-26T08:49:22.222Z,59.43
2022-10-26T08:51:52.260Z,61.99
2022-10-26T08:54:28.982Z,60.49
2022-10-26T08:57:00.827Z,61.04
2022-10-26T08:59:37.403Z,60.07
2022-10-26T09:02:13.046Z,60.75
2022-10-26T09:04:41.478Z,58.64
2022-10-26T09:07:18.789Z,59.35
2022-10-26T09:10:00.300Z,58.80
2022-10-26T09:12:42.743Z,59.18
2022-10-26T09:15:20.897Z,58.49
2022-10-26T09:17:58.909Z,59.26
2022-10-26T09:20:54.563Z,58.33
2022-10-26T09:23:38.837Z,56.10
2022-10-26T09:26:11.593Z,56.56
2022-10-26T09:28:42.045Z,56.34
2022-10-26T09:31:16.888Z,56.60
2022-10-26T09:33:44.954Z,55.18
2022-10-26T09:36:19.518Z,56.77
2022-10-26T09:38:52.773Z,54.67
2022-10-26T09:41:30.978Z,55.45
2022-10-26T09:44:06.843Z,54.74
2022-10-26T09:46:53.403Z,55.39
2022-10-26T09:49:26.754Z,56.76
2022-10-26T09:51:54.846Z,55.50
2022-10-26T09:54:23.839Z,53.46
2022-10-26T09:56:56.018Z,53.04
2022-10-26T09:59:26.690Z,52.41
2022-10-26T10:01:56.375Z,53.89
2022-10-26T10:04:26.357Z,53.69
2022-10-26T10:07:13.215Z,53.48
2022-10-26T10:09:41.514Z,54.82
2022-10-26T10:12:20.740Z,53.71
2022-10-26T10:14:59.201Z,50.97
2022-10-26T10:17:29.393Z,51.01
2022-10-26T10:20:12.667Z,51.36
2022-10-26T10:22:55.100Z,50.51
2022-10-26T10:25:33.392Z,50.18
2022-10-26T10:28:01.802Z,50.38
2022-10-26T10:30:32.738Z,51.32
2022-10-26T10:33:10.028Z,51.73
2022-10-26T10:35:40.248Z,48.66
2022-10-26T10:38:08.680Z,49.48
2022-10-26T10:40:36.865Z,49.71
2022-10-26T10:43:07.891Z,51.20
2022-10-26T10:45:37.138Z,52.61
2022-10-26T10:48:15.714Z,52.97
2022-10-26T10:50:54.223Z,50.23
2022-10-26T10:53:25.539Z,49.63
2022-10-26T10:56:35.438Z,49.91
2022-10-26T10:59:28.148Z,50.04
2022-10-26T11:02:14.142Z,48.85
2022-10-26T11:04:57.890Z,49.97
2022-10-26T11:07:28.167Z,51.04
2022-10-26T11:09:58.490Z,50.59
2022-10-26T11:12:32.238Z,50.41
2022-10-26T11:15:06.276Z,50.88
2022-10-26T11:17:39.967Z,49.02
2022-10-26T11:20:14.962Z,50.61
2022-10-26T11:22:48.130Z,50.59
2022-10-26T11:25:23.511Z,50.20
2022-10-26T11:27:56.351Z,49.70
2022-10-26T11:30:26.659Z,49.42
2022-10-26T11:32:59.375Z,49.93
2022-10-26T11:35:34.261Z,50.64
2022-10-26T11:38:07.043Z,52.69
2022-10-26T11:40:43.857Z,51.03
2022-10-26T11:43:19.664Z,50.33
2022-10-26T11:45:52.458Z,50.02
2022-10-26T11:48:25.271Z,51.64
2022-10-26T11:50:59.186Z,50.40
2022-10-26T11:53:32.109Z,53.22
2022-10-26T11:56:01.625Z,50.35
2022-10-26T11:58:31.518Z,49.71
2022-10-26T12:01:05.100Z,51.03
2022-10-26T12:03:35.568Z,49.41
2022-10-26T12:06:05.566Z,51.91
2022-10-26T12:08:38.793Z,52.32
2022-10-26T12:11:15.037Z,51.57
2022-10-26T12:13:50.787Z,50.24
2022-10-26T12:16:25.880Z,53.29
2022-10-26T12:19:00.581Z,51.53
2022-10-26T12:21:32.970Z,52.46
2022-10-26T12:24:02.660Z,52.09
2022-10-26T12:26:54.991Z,53.09
2022-10-26T12:29:35.937Z,53.62
2022-10-26T12:32:04.690Z,54.62
2022-10-26T12:35:05.054Z,50.89
2022-10-26T12:37:37.825Z,54.03
2022-10-26T12:40:41.933Z,52.27
2022-10-26T12:43:39.449Z,54.77
2022-10-26T12:46:45.709Z,55.79
2022-10-26T12:49:43.743Z,51.59
2022-10-26T12:52:30.477Z,53.96
2022-10-26T12:55:18.597Z,53.16
2022-10-26T12:57:57.465Z,54.56
2022-10-26T13:00:27.948Z,53.77
2022-10-26T13:03:20.310Z,53.98
2022-10-26T13:06:09.926Z,54.91
2022-10-26T13:08:43.243Z,55.85
2022-10-26T13:11:20.038Z,54.08
2022-10-26T13:13:56.289Z,55.66
2022-10-26T13:16:27.707Z,55.25
2022-10-26T13:18:56.480Z,56.48
2022-10-26T13:21:27.079Z,58.39
2022-10-26T13:24:01.939Z,58.45
2022-10-26T13:26:33.201Z,58.87
2022-10-26T13:29:03.097Z,59.00
2022-10-26T13:31:59.126Z,57.94
2022-10-26T13:34:31.564Z,57.63
2022-10-26T13:37:08.724Z,58.95
2022-10-26T13:39:38.727Z,59.63
2022-10-26T13:42:13.934Z,60.35
2022-10-26T13:44:48.669Z,60.91
2022-10-26T13:47:23.614Z,61.24
2022-10-26T13:49:55.786Z,60.88
2022-10-26T13:52:31.246Z,60.66
2022-10-26T13:55:02.760Z,60.42
2022-10-26T13:57:37.648Z,61.11
2022-10-26T14:00:15.835Z,61.57
2022-10-26T14:02:44.518Z,61.76
2022-10-26T14:05:14.853Z,62.66
2022-10-26T14:07:46.826Z,62.68
2022-10-26T14:10:28.249Z,62.83
2022-10-26T14:12:57.875Z,63.68
2022-10-26T14:15:28.580Z,63.88
2022-10-26T14:17:57.494Z,63.68
2022-10-26T14:20:28.503Z,63.92
2022-10-26T14:22:56.930Z,64.10
2022-10-26T14:25:36.233Z,63.39
2022-10-26T14:28:34.331Z,63.09
2022-10-26T14:31:21.795Z,63.34
2022-10-26T14:33:50.072Z,64.20
2022-10-26T14:36:21.927Z,63.65
2022-10-26T14:38:54.260Z,63.60
2022-10-26T14:41:23.919Z,63.91
2022-10-26T14:43:55.969Z,64.42
2022-10-26T14:46:24.529Z,64.88
2022-10-26T14:48:55.021Z,65.02
2022-10-26T14:51:28.246Z,65.23
2022-10-26T14:53:59.073Z,65.95
2022-10-26T14:56:30.834Z,66.76
2022-10-26T14:59:00.868Z,67.54
2022-10-26T15:01:35.820Z,67.73
2022-10-26T15:04:07.052Z,67.72
2022-10-26T15:06:43.960Z,68.16
2022-10-26T15:09:31.912Z,68.06
2022-10-26T15:12:00.413Z,67.54
2022-10-26T15:14:30.043Z,66.52
2022-10-26T15:16:59.910Z,65.81
2022-10-26T15:19:29.256Z,64.78
2022-10-26T15:21:57.501Z,65.51
2022-10-26T15:24:37.417Z,66.11
2022-10-26T15:27:15.506Z,66.55
2022-10-26T15:29:46.636Z,66.84
2022-10-26T15:32:30.403Z,66.28
2022-10-26T15:35:15.861Z,66.40
2022-10-26T15:37:44.069Z,66.61
2022-10-26T15:40:13.516Z,65.44
2022-10-26T15:42:43.858Z,65.26
2022-10-26T15:45:19.752Z,63.14
2022-10-26T15:47:48.381Z,61.43
2022-10-26T15:50:18.007Z,64.35
2022-10-26T15:52:49.044Z,63.36
2022-10-26T15:55:18.714Z,63.52
2022-10-26T15:57:46.884Z,62.41
2022-10-26T16:00:19.285Z,62.42
2022-10-26T16:02:47.909Z,64.06
2022-10-26T16:05:17.629Z,65.49
2022-10-26T16:07:49.197Z,64.86
2022-10-26T16:10:23.683Z,66.50
2022-10-26T16:12:52.278Z,68.02
2022-10-26T16:15:23.651Z,68.38
2022-10-26T16:17:53.012Z,67.80
2022-10-26T16:20:24.269Z,66.84
2022-10-26T16:22:54.169Z,66.99
2022-10-26T16:25:24.828Z,67.50
2022-10-26T16:27:53.842Z,67.48
2022-10-26T16:30:29.439Z,68.01
2022-10-26T16:32:58.670Z,68.46
2022-10-26T16:35:26.883Z,68.72
2022-10-26T16:37:55.484Z,68.25
2022-10-26T16:40:23.756Z,67.98
2022-10-26T16:42:52.048Z,67.60
2022-10-26T16:45:20.375Z,68.28
2022-10-26T16:47:50.352Z,69.24
2022-10-26T16:50:21.313Z,69.52
2022-10-26T16:52:49.741Z,69.31
2022-10-26T16:55:18.725Z,69.71
2022-10-26T16:57:46.895Z,69.76
2022-10-26T17:00:15.762Z,69.21
2022-10-26T17:02:44.002Z,69.76
2022-10-26T17:05:14.041Z,72.94
2022-10-26T17:07:42.118Z,72.62
2022-10-26T17:10:11.234Z,71.92
2022-10-26T17:12:39.751Z,71.48
2022-10-26T17:15:08.682Z,71.48
2022-10-26T17:17:36.758Z,71.25
2022-10-26T17:20:05.201Z,71.40
2022-10-26T17:22:34.757Z,71.39
2022-10-26T17:25:02.848Z,72.94
2022-10-26T17:27:30.998Z,73.78
2022-10-26T17:29:59.071Z,73.75
2022-10-26T17:32:27.140Z,73.10
2022-10-26T17:34:55.564Z,73.65
2022-10-26T17:37:23.685Z,73.15
2022-10-26T17:39:53.505Z,72.91
2022-10-26T17:42:21.722Z,73.43
2022-10-26T17:44:49.857Z,74.14
2022-10-26T17:47:17.926Z,73.91
2022-10-26T17:49:46.045Z,74.22
2022-10-26T17:52:14.418Z,74.60
2022-10-26T17:54:42.495Z,74.75
2022-10-26T17:57:12.140Z,74.13
2022-10-26T17:59:40.570Z,74.17
2022-10-26T18:02:08.730Z,74.35
2022-10-26T18:04:36.949Z,75.49
2022-10-26T18:07:05.013Z,75.65
2022-10-26T18:09:33.367Z,75.38
2022-10-26T18:12:01.543Z,75.85
2022-10-26T18:14:31.537Z,76.42
2022-10-26T18:16:59.687Z,79.84
2022-10-26T18:19:27.863Z,80.02
2022-10-26T18:21:55.963Z,81.30
2022-10-26T18:24:24.406Z,82.24
2022-10-26T18:26:52.442Z,82.58
2022-10-26T18:29:20.508Z,82.32
2022-10-26T18:31:50.042Z,81.52
2022-10-26T18:34:18.411Z,80.64
2022-10-26T18:36:46.615Z,79.59
2022-10-26T18:39:14.902Z,79.50
2022-10-26T18:41:43.072Z,79.85
2022-10-26T18:44:11.510Z,80.91
2022-10-26T18:46:42.765Z,81.54
2022-10-26T18:49:14.126Z,80.63
2022-10-26T18:51:42.295Z,81.04
2022-10-26T18:54:10.373Z,81.69
2022-10-26T18:56:38.416Z,81.80
2022-10-26T18:59:06.980Z,81.92
2022-10-26T19:01:39.611Z,81.66
2022-10-26T19:04:09.943Z,81.22
2022-10-26T19:06:41.663Z,81.18
2022-10-26T19:09:10.503Z,81.99
2022-10-26T19:11:39.678Z,82.67
2022-10-26T19:14:08.249Z,84.26
2022-10-26T19:16:46.727Z,83.65
2022-10-26T19:19:16.467Z,82.71
2022-10-26T19:21:47.187Z,82.81
2022-10-26T19:24:18.061Z,82.52
2022-10-26T19:26:46.758Z,81.98
2022-10-26T19:29:16.811Z,81.92
2022-10-26T19:31:46.031Z,81.58
2022-10-26T19:34:15.879Z,81.30
2022-10-26T19:36:47.386Z,81.83
2022-10-26T19:39:16.385Z,82.04
2022-10-26T19:41:45.199Z,81.71
2022-10-26T19:44:15.001Z,82.05
2022-10-26T19:46:44.416Z,82.44
2022-10-26T19:49:13.809Z,82.60
2022-10-26T19:51:42.422Z,81.69
2022-10-26T19:54:11.973Z,81.76
2022-10-26T19:56:40.210Z,82.20
2022-10-26T19:59:09.430Z,82.35
2022-10-26T20:01:37.839Z,82.26
2022-10-26T20:04:06.550Z,82.61
2022-10-26T20:06:34.917Z,82.82
2022-10-26T20:09:03.429Z,82.96
2022-10-26T20:11:35.422Z,83.07
2022-10-26T20:14:04.036Z,83.09
2022-10-26T20:16:32.247Z,83.07
2022-10-26T20:19:02.107Z,83.29
2022-10-26T20:21:30.135Z,83.45
2022-10-26T20:23:58.178Z,83.36
2022-10-26T20:26:28.485Z,83.70
2022-10-26T20:28:58.369Z,84.24
2022-10-26T20:31:26.498Z,84.90
2022-10-26T20:33:55.045Z,86.08
2022-10-26T20:36:23.837Z,86.00
2022-10-26T20:38:52.342Z,87.74
2022-10-26T20:41:21.152Z,86.89
2022-10-26T20:43:53.287Z,86.62
2022-10-26T20:46:27.841Z,86.92
2022-10-26T20:48:56.626Z,86.48
2022-10-26T20:51:36.833Z,85.94
2022-10-26T20:54:08.682Z,85.12
2022-10-26T20:56:41.745Z,84.80
2022-10-26T20:59:20.804Z,84.97
2022-10-26T21:01:50.663Z,84.74
2022-10-26T21:04:18.790Z,84.61
2022-10-26T21:06:46.874Z,84.64
2022-10-26T21:09:14.931Z,84.70
2022-10-26T21:11:43.049Z,84.69
2022-10-26T21:14:11.495Z,85.06
2022-10-26T21:16:39.871Z,85.12
2022-10-26T21:19:09.691Z,85.35
2022-10-26T21:21:37.754Z,86.01
2022-10-26T21:24:06.106Z,86.58
2022-10-26T21:26:34.178Z,86.33
2022-10-26T21:29:02.337Z,86.39
2022-10-26T21:31:30.686Z,87.58
2022-10-26T21:33:58.754Z,88.37
2022-10-26T21:36:28.796Z,90.17
2022-10-26T21:38:56.871Z,89.47
2022-10-26T21:44:08.386Z,90.22
2022-10-26T21:46:38.926Z,88.42
2022-10-26T21:49:07.088Z,87.76
2022-10-26T21:51:37.043Z,87.08
2022-10-26T21:54:05.682Z,86.69
2022-10-26T21:56:33.779Z,86.11
2022-10-26T21:59:02.269Z,84.58
2022-10-26T22:01:30.629Z,87.79
2022-10-26T22:03:58.971Z,92.07
2022-10-26T22:06:27.039Z,91.45
2022-10-26T22:08:57.058Z,92.07
2022-10-26T22:11:26.510Z,94.82
2022-10-26T22:13:55.399Z,93.27
2022-10-26T22:16:25.902Z,94.19
2022-10-26T22:18:56.061Z,94.82
2022-10-26T22:21:25.934Z,93.88
2022-10-26T22:23:54.477Z,94.47
2022-10-26T22:26:25.822Z,96.03
2022-10-26T22:28:55.308Z,93.83
2022-10-26T22:31:26.098Z,94.19
2022-10-26T22:33:55.252Z,93.45
2022-10-26T22:36:24.321Z,91.99
2022-10-26T22:38:53.514Z,93.16
2022-10-26T22:41:24.654Z,95.59
2022-10-26T22:43:53.341Z,95.30
2022-10-26T22:46:23.418Z,95.28
2022-10-26T22:48:54.845Z,95.80
2022-10-26T22:51:24.872Z,94.23
2022-10-26T22:53:54.076Z,91.30
2022-10-26T22:58:58.155Z,89.83
2022-10-26T23:01:31.415Z,88.85
2022-10-26T23:04:00.122Z,88.08
2022-10-26T23:06:30.955Z,89.07
2022-10-26T23:08:59.506Z,89.11
2022-10-26T23:11:30.997Z,88.71
2022-10-26T23:14:01.040Z,89.50
2022-10-26T23:16:30.382Z,88.72
2022-10-26T23:18:59.821Z,88.03
2022-10-26T23:21:29.773Z,88.65
2022-10-26T23:23:58.667Z,89.86
2022-10-26T23:26:28.512Z,90.11
2022-10-26T23:28:56.813Z,92.10
2022-10-26T23:31:26.405Z,93.13
2022-10-26T23:33:56.352Z,93.02
2022-10-26T23:36:25.268Z,92.58
2022-10-26T23:38:53.507Z,92.79
2022-10-26T23:41:21.509Z,94.22
2022-10-26T23:43:51.107Z,92.34
2022-10-26T23:46:19.212Z,90.82
2022-10-26T23:48:47.310Z,89.44
2022-10-26T23:51:15.600Z,88.19
2022-10-26T23:53:43.980Z,87.77
2022-10-26T23:56:12.143Z,87.47
2022-10-26T23:58:40.222Z,87.86
